Time;durP1;ratioP1;P1;durP2;ratioP2;P2;SDS_P1;SDS_P2;PMS_P1;PMS_P2;Temp;Humidity;BMP_temperature;BMP_pressure;BME280_temperature;BME280_humidity;BME280_pressure;Samples;Min_cycle;Max_cycle;Signal;HPM_P1;HPM_P2
2023/07/31 00:00:26;;;;;;;;;;;15.90;99.90;;;;;;5132680;27;19914;-43
2023/07/31 00:02:52;;;;;;;;;;;15.80;99.90;;;;;;5130835;27;20724;-43
2023/07/31 00:05:17;;;;;;;;;;;15.80;99.90;;;;;;5133010;28;19908;-43
2023/07/31 00:07:43;;;;;;;;;;;15.70;99.90;;;;;;5132257;28;20285;-43
2023/07/31 00:10:08;;;;;;;;;;;15.70;99.90;;;;;;5133012;28;20384;-47
2023/07/31 00:12:34;;;;;;;;;;;15.70;99.90;;;;;;5129522;28;19912;-45
2023/07/31 00:14:59;;;;;;;;;;;15.70;99.90;;;;;;5132397;28;19908;-44
2023/07/31 00:17:25;;;;;;;;;;;15.70;99.90;;;;;;5132944;28;19908;-44
2023/07/31 00:19:50;;;;;;;;;;;15.70;99.90;;;;;;5132164;28;20000;-44
2023/07/31 00:22:16;;;;;;;;;;;15.70;99.90;;;;;;5131140;28;20258;-41
2023/07/31 00:24:41;;;;;;;;;;;15.60;99.90;;;;;;5132995;28;19959;-42
2023/07/31 00:27:07;;;;;;;;;;;15.60;99.90;;;;;;5132058;28;19980;-43
2023/07/31 00:29:32;;;;;;;;;;;15.60;99.90;;;;;;5133454;28;19907;-42
2023/07/31 00:31:58;;;;;;;;;;;15.60;99.90;;;;;;5122444;28;19951;-43
2023/07/31 00:34:23;;;;;;;;;;;15.60;99.90;;;;;;5112331;28;19916;-44
2023/07/31 00:36:49;;;;;;;;;;;15.60;99.90;;;;;;5112871;28;20297;-43
2023/07/31 00:39:14;;;;;;;;;;;15.60;99.90;;;;;;5112799;28;19960;-47
2023/07/31 00:41:40;;;;;;;;;;;15.60;99.90;;;;;;5112025;28;19912;-43
2023/07/31 00:44:05;;;;;;;;;;;15.60;99.90;;;;;;5112342;28;19920;-44
2023/07/31 00:46:31;;;;;;;;;;;15.60;99.90;;;;;;5112687;28;19908;-44
2023/07/31 00:48:56;;;;;;;;;;;15.50;99.90;;;;;;5111895;28;19908;-42
2023/07/31 00:51:22;;;;;;;;;;;15.50;99.90;;;;;;5119672;28;19979;-43
2023/07/31 00:53:47;;;;;;;;;;;15.50;99.90;;;;;;5133265;28;19964;-42
2023/07/31 00:56:13;;;;;;;;;;;15.50;99.90;;;;;;5132235;28;20377;-44
2023/07/31 00:58:39;;;;;;;;;;;15.50;99.90;;;;;;5133304;28;19918;-46
2023/07/31 01:01:04;;;;;;;;;;;15.40;99.90;;;;;;5114171;28;20283;-42
2023/07/31 01:03:30;;;;;;;;;;;15.40;99.90;;;;;;5115321;28;19961;-44
2023/07/31 01:06:01;;;;;;;;;;;15.40;99.90;;;;;;5116407;28;20332;-45
2023/07/31 01:08:38;;;;;;;;;;;15.40;99.90;;;;;;5116346;28;19953;-43
2023/07/31 01:11:10;;;;;;;;;;;15.40;99.90;;;;;;5132644;27;19950;-43
2023/07/31 01:13:36;;;;;;;;;;;15.40;99.90;;;;;;5136639;27;19908;-43
2023/07/31 01:16:01;;;;;;;;;;;15.40;99.90;;;;;;5135764;27;19914;-44
2023/07/31 01:18:27;;;;;;;;;;;15.40;99.90;;;;;;5136867;27;20388;-46
2023/07/31 01:20:57;;;;;;;;;;;15.40;99.90;;;;;;5136363;27;19911;-44
2023/07/31 01:23:40;;;;;;;;;;;15.30;99.90;;;;;;5135886;27;20364;-48
2023/07/31 01:26:06;;;;;;;;;;;15.30;99.90;;;;;;5136571;27;19967;-42
2023/07/31 01:28:47;;;;;;;;;;;15.30;99.90;;;;;;5136271;27;19916;-42
2023/07/31 01:31:18;;;;;;;;;;;15.30;99.90;;;;;;5135803;27;19960;-45
2023/07/31 01:33:43;;;;;;;;;;;15.30;99.90;;;;;;5136554;27;20274;-43
2023/07/31 01:36:09;;;;;;;;;;;15.30;99.90;;;;;;5136381;27;19908;-43
2023/07/31 01:38:35;;;;;;;;;;;15.30;99.90;;;;;;5135291;27;19915;-46
2023/07/31 01:41:00;;;;;;;;;;;15.20;99.90;;;;;;5136285;27;20354;-44
2023/07/31 01:43:26;;;;;;;;;;;15.30;99.90;;;;;;5135941;27;19926;-44
2023/07/31 01:45:51;;;;;;;;;;;15.20;99.90;;;;;;5135533;27;20422;-43
2023/07/31 01:48:17;;;;;;;;;;;15.20;99.90;;;;;;5135640;27;20000;-44
2023/07/31 01:50:42;;;;;;;;;;;15.20;99.90;;;;;;5134215;27;20162;-45
2023/07/31 01:53:07;;;;;;;;;;;15.20;99.90;;;;;;5135298;27;19954;-44
2023/07/31 01:55:33;;;;;;;;;;;15.20;99.90;;;;;;5136089;27;19914;-45
2023/07/31 01:57:58;;;;;;;;;;;15.20;99.90;;;;;;5135572;27;19915;-43
2023/07/31 02:00:24;;;;;;;;;;;15.20;99.90;;;;;;5135359;27;19915;-44
2023/07/31 02:02:49;;;;;;;;;;;15.20;99.90;;;;;;5135831;27;20254;-42
2023/07/31 02:05:15;;;;;;;;;;;15.20;99.90;;;;;;5135008;27;19915;-46
2023/07/31 02:07:40;;;;;;;;;;;15.30;99.90;;;;;;5133641;27;19907;-48
2023/07/31 02:10:06;;;;;;;;;;;15.20;99.90;;;;;;5115349;27;19994;-43
2023/07/31 02:12:33;;;;;;;;;;;15.30;99.90;;;;;;5114448;28;19912;-44
2023/07/31 02:14:58;;;;;;;;;;;15.30;99.90;;;;;;5114314;28;20279;-46
2023/07/31 02:17:24;;;;;;;;;;;15.30;99.90;;;;;;5134359;27;19937;-44
2023/07/31 02:19:49;;;;;;;;;;;15.30;99.90;;;;;;5114742;27;19918;-45
2023/07/31 02:22:15;;;;;;;;;;;15.30;99.90;;;;;;5114819;28;19998;-45
2023/07/31 02:24:40;;;;;;;;;;;15.30;99.90;;;;;;5114872;28;19960;-44
2023/07/31 02:27:06;;;;;;;;;;;15.30;99.90;;;;;;5113973;28;19953;-43
2023/07/31 02:29:32;;;;;;;;;;;15.30;99.90;;;;;;5114872;28;19918;-44
2023/07/31 02:31:57;;;;;;;;;;;15.30;99.90;;;;;;5114767;28;20010;-43
2023/07/31 02:34:22;;;;;;;;;;;15.30;99.90;;;;;;5113936;28;19908;-45
2023/07/31 02:36:48;;;;;;;;;;;15.30;99.90;;;;;;5114588;27;19915;-43
2023/07/31 02:39:13;;;;;;;;;;;15.30;99.90;;;;;;5114561;28;19907;-44
2023/07/31 02:41:39;;;;;;;;;;;15.30;99.90;;;;;;5113953;28;20314;-43
2023/07/31 02:44:04;;;;;;;;;;;15.30;99.90;;;;;;5114281;28;19920;-43
2023/07/31 02:46:30;;;;;;;;;;;15.30;99.90;;;;;;5114445;27;19911;-43
2023/07/31 02:48:55;;;;;;;;;;;15.40;99.90;;;;;;5113818;28;19954;-45
2023/07/31 02:51:21;;;;;;;;;;;15.40;99.90;;;;;;5114235;28;20358;-43
2023/07/31 02:53:47;;;;;;;;;;;15.40;99.90;;;;;;5114293;28;19911;-45
2023/07/31 02:56:13;;;;;;;;;;;15.40;99.90;;;;;;5113422;28;19911;-44
2023/07/31 02:58:38;;;;;;;;;;;15.40;99.90;;;;;;5114109;27;19934;-45
2023/07/31 03:01:04;;;;;;;;;;;15.40;99.90;;;;;;5114053;28;19950;-42
2023/07/31 03:03:29;;;;;;;;;;;15.50;99.90;;;;;;5113346;28;19916;-43
2023/07/31 03:05:55;;;;;;;;;;;15.40;99.90;;;;;;5114006;28;19908;-43
2023/07/31 03:08:20;;;;;;;;;;;15.50;99.90;;;;;;5131297;27;19983;-45
2023/07/31 03:10:46;;;;;;;;;;;15.50;99.90;;;;;;5133900;27;20362;-42
2023/07/31 03:13:11;;;;;;;;;;;15.50;99.90;;;;;;5134411;27;19962;-43
2023/07/31 03:15:37;;;;;;;;;;;15.50;99.90;;;;;;5133761;27;19914;-44
2023/07/31 03:18:02;;;;;;;;;;;15.50;99.90;;;;;;5134417;27;19965;-42
2023/07/31 03:20:28;;;;;;;;;;;15.50;99.90;;;;;;5132517;27;19907;-43
2023/07/31 03:22:53;;;;;;;;;;;15.50;99.90;;;;;;5112932;28;19970;-44
2023/07/31 03:25:19;;;;;;;;;;;15.50;99.90;;;;;;5112816;28;19934;-45
2023/07/31 03:27:44;;;;;;;;;;;15.60;99.90;;;;;;5113785;28;19912;-45
2023/07/31 03:30:10;;;;;;;;;;;15.60;99.90;;;;;;5112850;28;19908;-43
2023/07/31 03:32:35;;;;;;;;;;;15.60;99.90;;;;;;5113716;28;19939;-44
2023/07/31 03:35:01;;;;;;;;;;;15.70;99.90;;;;;;5113641;28;19911;-44
2023/07/31 03:37:26;;;;;;;;;;;15.70;99.90;;;;;;5112771;28;20274;-47
2023/07/31 03:39:52;;;;;;;;;;;15.70;99.90;;;;;;5113694;28;19908;-42
2023/07/31 03:42:17;;;;;;;;;;;15.70;99.90;;;;;;5113139;28;19912;-43
2023/07/31 03:44:43;;;;;;;;;;;15.70;99.90;;;;;;5112693;28;20026;-44
2023/07/31 03:47:08;;;;;;;;;;;15.70;99.90;;;;;;5113246;28;19912;-43
2023/07/31 03:49:34;;;;;;;;;;;15.70;99.90;;;;;;5113488;27;19920;-43
2023/07/31 03:51:59;;;;;;;;;;;15.70;99.90;;;;;;5125547;27;19907;-44
2023/07/31 03:54:25;;;;;;;;;;;15.80;99.90;;;;;;5121978;28;20303;-45
2023/07/31 03:56:50;;;;;;;;;;;15.70;99.90;;;;;;5133919;27;19914;-43
2023/07/31 03:59:16;;;;;;;;;;;15.80;99.90;;;;;;5121914;27;20500;-44
2023/07/31 04:01:41;;;;;;;;;;;15.80;99.90;;;;;;5117518;27;19911;-45
2023/07/31 04:04:07;;;;;;;;;;;15.80;99.90;;;;;;5133205;27;19926;-44
2023/07/31 04:06:32;;;;;;;;;;;15.80;99.90;;;;;;5120463;27;19934;-43
2023/07/31 04:08:58;;;;;;;;;;;15.80;99.90;;;;;;5115954;28;19918;-44
2023/07/31 04:11:23;;;;;;;;;;;15.80;99.90;;;;;;5115447;28;19916;-46
2023/07/31 04:13:49;;;;;;;;;;;15.80;99.90;;;;;;5115944;28;19911;-44
2023/07/31 04:16:14;;;;;;;;;;;15.80;99.90;;;;;;5124840;28;19930;-45
2023/07/31 04:18:40;;;;;;;;;;;15.90;99.90;;;;;;5113323;28;20081;-43
2023/07/31 04:21:05;;;;;;;;;;;15.90;99.90;;;;;;5117973;28;19912;-45
2023/07/31 04:23:30;;;;;;;;;;;15.90;99.90;;;;;;5128122;28;20354;-46
2023/07/31 04:25:56;;;;;;;;;;;15.90;99.90;;;;;;5128919;28;19915;-45
2023/07/31 04:28:21;;;;;;;;;;;15.90;99.90;;;;;;5123992;28;20267;-45
2023/07/31 04:30:47;;;;;;;;;;;15.90;99.90;;;;;;5125624;28;19922;-45
2023/07/31 04:33:12;;;;;;;;;;;15.90;99.90;;;;;;5113659;28;19996;-44
2023/07/31 04:35:38;;;;;;;;;;;15.90;99.90;;;;;;5113942;27;20400;-43
2023/07/31 04:38:03;;;;;;;;;;;15.90;99.90;;;;;;5121452;27;19908;-43
2023/07/31 04:40:29;;;;;;;;;;;15.90;99.90;;;;;;5122039;27;19923;-44
2023/07/31 04:42:54;;;;;;;;;;;15.90;99.90;;;;;;5126131;27;20010;-45
2023/07/31 04:45:20;;;;;;;;;;;15.90;99.90;;;;;;5120674;27;19919;-43
2023/07/31 04:47:45;;;;;;;;;;;15.90;99.90;;;;;;5124457;27;19912;-44
2023/07/31 04:50:11;;;;;;;;;;;16.00;99.90;;;;;;5132411;27;19929;-44
2023/07/31 04:52:36;;;;;;;;;;;15.90;99.90;;;;;;5136916;27;20277;-43
2023/07/31 04:55:02;;;;;;;;;;;16.00;99.90;;;;;;5135780;27;20037;-43
2023/07/31 04:57:28;;;;;;;;;;;16.00;99.90;;;;;;5132132;27;19911;-43
2023/07/31 04:59:53;;;;;;;;;;;16.00;99.90;;;;;;5119426;27;19908;-43
2023/07/31 05:02:19;;;;;;;;;;;16.00;99.90;;;;;;5127376;27;19918;-43
2023/07/31 05:04:44;;;;;;;;;;;16.00;99.90;;;;;;5120603;27;19919;-44
2023/07/31 05:07:10;;;;;;;;;;;16.00;99.90;;;;;;5126971;27;20324;-44
2023/07/31 05:09:35;;;;;;;;;;;16.10;99.90;;;;;;5116101;27;20045;-44
2023/07/31 05:12:01;;;;;;;;;;;16.10;99.90;;;;;;5123116;27;19912;-42
2023/07/31 05:14:26;;;;;;;;;;;16.20;99.90;;;;;;5116766;27;19919;-43
2023/07/31 05:16:52;;;;;;;;;;;16.10;99.90;;;;;;5116020;27;19911;-42
2023/07/31 05:19:18;;;;;;;;;;;16.20;99.90;;;;;;5116670;27;19912;-42
2023/07/31 05:21:43;;;;;;;;;;;16.20;99.90;;;;;;5118699;27;20294;-44
2023/07/31 05:24:09;;;;;;;;;;;16.20;99.90;;;;;;5118949;27;19919;-44
2023/07/31 05:26:34;;;;;;;;;;;16.30;99.90;;;;;;5118690;27;19912;-43
2023/07/31 05:29:00;;;;;;;;;;;16.30;99.90;;;;;;5122061;27;19911;-42
2023/07/31 05:31:26;;;;;;;;;;;16.30;99.90;;;;;;5120550;27;20008;-45
2023/07/31 05:33:51;;;;;;;;;;;16.30;99.90;;;;;;5120095;27;19912;-42
2023/07/31 05:36:17;;;;;;;;;;;16.30;99.90;;;;;;5121828;27;19911;-42
2023/07/31 05:38:44;;;;;;;;;;;16.40;99.90;;;;;;5117627;27;19911;-42
2023/07/31 05:41:11;;;;;;;;;;;16.30;99.90;;;;;;5128828;27;20126;-41
2023/07/31 05:43:37;;;;;;;;;;;16.40;99.90;;;;;;5134254;27;19934;-42
2023/07/31 05:46:02;;;;;;;;;;;16.40;99.90;;;;;;5135930;27;20322;-42
2023/07/31 05:48:28;;;;;;;;;;;16.40;99.90;;;;;;5134540;27;19950;-42
2023/07/31 05:50:53;;;;;;;;;;;16.40;99.90;;;;;;5127957;27;20007;-42
2023/07/31 05:53:19;;;;;;;;;;;16.40;99.90;;;;;;5114092;28;19911;-42
2023/07/31 05:55:44;;;;;;;;;;;16.40;99.90;;;;;;5113573;28;20281;-43
2023/07/31 05:58:10;;;;;;;;;;;16.40;99.90;;;;;;5112826;28;19907;-42
2023/07/31 06:00:36;;;;;;;;;;;16.40;99.90;;;;;;5113610;28;19908;-43
2023/07/31 06:03:01;;;;;;;;;;;16.40;99.90;;;;;;5113689;28;19994;-42
2023/07/31 06:05:29;;;;;;;;;;;16.40;99.90;;;;;;5113319;28;19908;-42
2023/07/31 06:07:54;;;;;;;;;;;16.40;99.90;;;;;;5114310;27;19908;-43
2023/07/31 06:10:19;;;;;;;;;;;16.50;99.90;;;;;;5126496;27;19968;-43
2023/07/31 06:12:45;;;;;;;;;;;16.40;99.90;;;;;;5117200;27;20362;-42
2023/07/31 06:15:11;;;;;;;;;;;16.40;99.90;;;;;;5132902;27;19911;-41
2023/07/31 06:17:36;;;;;;;;;;;16.50;99.90;;;;;;5135089;27;19927;-42
2023/07/31 06:20:04;;;;;;;;;;;16.50;99.90;;;;;;5130338;27;20293;-42
2023/07/31 06:22:30;;;;;;;;;;;16.60;99.90;;;;;;5121196;27;19941;-42
2023/07/31 06:24:56;;;;;;;;;;;16.60;99.90;;;;;;5117895;27;19920;-41
2023/07/31 06:27:21;;;;;;;;;;;16.60;99.90;;;;;;5134448;27;20286;-42
2023/07/31 06:29:47;;;;;;;;;;;16.60;99.90;;;;;;5118940;27;20362;-43
2023/07/31 06:32:13;;;;;;;;;;;16.50;99.90;;;;;;5114395;28;19915;-42
2023/07/31 06:34:39;;;;;;;;;;;16.60;99.90;;;;;;5121483;27;20327;-42
2023/07/31 06:37:04;;;;;;;;;;;16.50;99.90;;;;;;5132603;27;20390;-42
2023/07/31 06:39:30;;;;;;;;;;;16.50;99.90;;;;;;5134433;27;19915;-42
2023/07/31 06:41:55;;;;;;;;;;;16.50;99.90;;;;;;5132037;27;19947;-42
2023/07/31 06:44:21;;;;;;;;;;;16.50;99.90;;;;;;5119335;27;20390;-42
2023/07/31 06:46:46;;;;;;;;;;;16.50;99.90;;;;;;5114642;27;21501;-42
2023/07/31 06:49:12;;;;;;;;;;;16.50;99.90;;;;;;5119313;27;19969;-42
2023/07/31 06:51:38;;;;;;;;;;;16.60;99.90;;;;;;5121113;27;19911;-42
2023/07/31 06:54:03;;;;;;;;;;;16.50;99.90;;;;;;5112300;27;19947;-42
2023/07/31 06:56:29;;;;;;;;;;;16.60;99.90;;;;;;5114241;27;20023;-44
2023/07/31 06:58:55;;;;;;;;;;;16.60;99.90;;;;;;5114299;27;19912;-44
2023/07/31 07:01:21;;;;;;;;;;;16.60;99.90;;;;;;5124756;27;19950;-42
2023/07/31 07:03:46;;;;;;;;;;;16.60;99.90;;;;;;5127173;27;19959;-42
2023/07/31 07:06:12;;;;;;;;;;;16.60;99.90;;;;;;5133132;27;19937;-43
2023/07/31 07:08:37;;;;;;;;;;;16.60;99.90;;;;;;5125329;27;20278;-43
2023/07/31 07:11:03;;;;;;;;;;;16.60;99.90;;;;;;5118941;27;19911;-42
2023/07/31 07:13:29;;;;;;;;;;;16.60;99.90;;;;;;5120032;27;19920;-45
2023/07/31 07:15:54;;;;;;;;;;;16.60;99.90;;;;;;5117547;27;19911;-42
2023/07/31 07:18:21;;;;;;;;;;;16.60;99.90;;;;;;5119550;27;20364;-42
2023/07/31 07:20:47;;;;;;;;;;;16.60;99.90;;;;;;5123159;27;19955;-42
2023/07/31 07:23:12;;;;;;;;;;;16.60;99.90;;;;;;5123654;27;19950;-42
2023/07/31 07:25:38;;;;;;;;;;;16.60;99.90;;;;;;5125401;27;20370;-42
2023/07/31 07:28:04;;;;;;;;;;;16.70;99.90;;;;;;5127344;27;19919;-42
2023/07/31 07:30:29;;;;;;;;;;;16.70;99.90;;;;;;5119465;27;19995;-43
2023/07/31 07:32:54;;;;;;;;;;;16.70;99.90;;;;;;5114821;27;19912;-42
2023/07/31 07:35:20;;;;;;;;;;;16.70;99.90;;;;;;5112360;28;19935;-42
2023/07/31 07:37:48;;;;;;;;;;;16.70;99.90;;;;;;5116428;27;20400;-42
2023/07/31 07:40:13;;;;;;;;;;;16.70;99.90;;;;;;5114549;27;19936;-42
2023/07/31 07:42:39;;;;;;;;;;;16.70;99.90;;;;;;5113028;28;19924;-41
2023/07/31 07:45:04;;;;;;;;;;;16.70;99.90;;;;;;5117631;27;20401;-41
2023/07/31 07:47:30;;;;;;;;;;;16.70;99.90;;;;;;5122585;27;19919;-42
2023/07/31 07:49:55;;;;;;;;;;;16.70;99.90;;;;;;5113565;27;20311;-42
2023/07/31 07:52:21;;;;;;;;;;;16.70;99.90;;;;;;5121997;27;19969;-42
2023/07/31 07:54:46;;;;;;;;;;;16.60;99.90;;;;;;5117981;27;19911;-43
2023/07/31 07:57:12;;;;;;;;;;;16.60;99.90;;;;;;5129593;27;19968;-42
2023/07/31 07:59:37;;;;;;;;;;;16.70;99.90;;;;;;5122922;27;19980;-42
2023/07/31 08:02:03;;;;;;;;;;;16.70;99.90;;;;;;5121466;27;19912;-41
2023/07/31 08:04:28;;;;;;;;;;;16.70;99.90;;;;;;5112338;28;19920;-41
2023/07/31 08:06:54;;;;;;;;;;;16.70;99.90;;;;;;5113309;28;20324;-41
2023/07/31 08:09:19;;;;;;;;;;;16.70;99.90;;;;;;5127714;28;19921;-41
2023/07/31 08:11:45;;;;;;;;;;;16.70;99.90;;;;;;5133803;27;19958;-42
2023/07/31 08:14:10;;;;;;;;;;;16.80;99.90;;;;;;5121136;27;19914;-42
2023/07/31 08:16:36;;;;;;;;;;;16.80;99.90;;;;;;5124789;27;20107;-42
2023/07/31 08:19:01;;;;;;;;;;;16.80;99.90;;;;;;5122423;27;19916;-41
2023/07/31 08:21:27;;;;;;;;;;;16.80;99.90;;;;;;5131053;27;20305;-42
2023/07/31 08:23:52;;;;;;;;;;;16.80;99.90;;;;;;5122036;27;19920;-42
2023/07/31 08:26:18;;;;;;;;;;;16.80;99.90;;;;;;5120511;27;19926;-41
2023/07/31 08:28:44;;;;;;;;;;;16.80;99.90;;;;;;5136556;27;20258;-42
2023/07/31 08:31:10;;;;;;;;;;;16.90;99.90;;;;;;5139291;27;20280;-41
2023/07/31 08:33:36;;;;;;;;;;;17.00;99.90;;;;;;5131899;27;20363;-43
2023/07/31 08:36:02;;;;;;;;;;;17.00;99.90;;;;;;5125510;27;19918;-42
2023/07/31 08:38:29;;;;;;;;;;;17.00;99.90;;;;;;5127555;27;19923;-41
2023/07/31 08:40:56;;;;;;;;;;;17.00;99.90;;;;;;5120053;27;20008;-43
2023/07/31 08:43:22;;;;;;;;;;;17.00;99.90;;;;;;5125100;27;19924;-42
2023/07/31 08:45:48;;;;;;;;;;;17.00;99.90;;;;;;5131313;27;20298;-40
2023/07/31 08:48:15;;;;;;;;;;;17.00;99.90;;;;;;5130215;27;20405;-41
2023/07/31 08:50:41;;;;;;;;;;;16.90;99.90;;;;;;5124556;27;19918;-41
2023/07/31 08:53:07;;;;;;;;;;;17.00;99.90;;;;;;5127863;27;19918;-42
2023/07/31 08:55:33;;;;;;;;;;;17.00;99.90;;;;;;5133904;27;19907;-42
2023/07/31 08:57:58;;;;;;;;;;;17.10;99.90;;;;;;5136840;27;20030;-42
2023/07/31 09:00:25;;;;;;;;;;;17.10;99.90;;;;;;5137485;27;19965;-41
2023/07/31 09:03:01;;;;;;;;;;;17.10;99.90;;;;;;5137984;27;19921;-41
2023/07/31 09:05:28;;;;;;;;;;;17.20;99.90;;;;;;5137869;27;20014;-42
2023/07/31 09:07:55;;;;;;;;;;;17.20;99.90;;;;;;5137755;27;20354;-41
2023/07/31 09:10:20;;;;;;;;;;;17.30;99.90;;;;;;5137949;27;19908;-42
2023/07/31 09:12:46;;;;;;;;;;;17.30;99.90;;;;;;5129093;27;19916;-42
2023/07/31 09:15:11;;;;;;;;;;;17.30;99.90;;;;;;5131031;27;20002;-42
2023/07/31 09:17:37;;;;;;;;;;;17.40;99.90;;;;;;5123308;27;19916;-43
2023/07/31 09:20:19;;;;;;;;;;;17.40;99.90;;;;;;5129889;27;20393;-42
2023/07/31 09:22:45;;;;;;;;;;;17.40;99.90;;;;;;5131919;27;19912;-41
2023/07/31 09:25:15;;;;;;;;;;;17.40;99.90;;;;;;5115493;27;19924;-42
2023/07/31 09:27:59;;;;;;;;;;;17.50;99.90;;;;;;5115700;27;19915;-42
2023/07/31 09:30:25;;;;;;;;;;;17.50;99.90;;;;;;5115450;28;19912;-41
2023/07/31 09:32:51;;;;;;;;;;;17.50;99.90;;;;;;5116065;28;19918;-43
2023/07/31 09:35:21;;;;;;;;;;;17.60;99.90;;;;;;5097454;28;20002;-41
2023/07/31 09:37:50;;;;;;;;;;;17.60;99.90;;;;;;5124844;27;20393;-41
2023/07/31 09:40:29;;;;;;;;;;;17.60;99.90;;;;;;5136037;27;19907;-42
2023/07/31 09:42:58;;;;;;;;;;;17.60;99.90;;;;;;5122408;27;19920;-42
2023/07/31 09:45:24;;;;;;;;;;;17.60;99.90;;;;;;5136458;27;19968;-41
2023/07/31 09:47:49;;;;;;;;;;;17.60;99.90;;;;;;5119621;27;19920;-41
2023/07/31 09:50:18;;;;;;;;;;;17.60;99.90;;;;;;5125411;27;20074;-41
2023/07/31 09:52:43;;;;;;;;;;;17.70;99.90;;;;;;5129424;27;20344;-42
2023/07/31 09:55:10;;;;;;;;;;;17.80;99.90;;;;;;5118795;27;20445;-42
2023/07/31 09:57:45;;;;;;;;;;;17.80;99.90;;;;;;5116846;27;19965;-41
2023/07/31 10:00:12;;;;;;;;;;;17.90;99.90;;;;;;5121884;27;19916;-43
2023/07/31 10:02:38;;;;;;;;;;;17.90;99.90;;;;;;5127120;27;19916;-42
2023/07/31 10:05:04;;;;;;;;;;;17.90;99.90;;;;;;5121298;27;19980;-41
2023/07/31 10:07:35;;;;;;;;;;;17.90;99.90;;;;;;5135756;27;19911;-43
2023/07/31 10:10:01;;;;;;;;;;;17.90;99.90;;;;;;5134903;27;19911;-42
2023/07/31 10:12:30;;;;;;;;;;;18.00;99.90;;;;;;5120610;27;20286;-41
2023/07/31 10:14:56;;;;;;;;;;;18.10;99.90;;;;;;5129399;27;19912;-42
2023/07/31 10:17:22;;;;;;;;;;;18.10;99.90;;;;;;5125913;27;19967;-43
2023/07/31 10:19:48;;;;;;;;;;;18.20;99.90;;;;;;5130824;27;19919;-41
2023/07/31 10:22:14;;;;;;;;;;;18.30;99.90;;;;;;5134966;27;20362;-42
2023/07/31 10:24:40;;;;;;;;;;;18.30;99.90;;;;;;5134217;27;19940;-41
2023/07/31 10:27:07;;;;;;;;;;;18.30;99.90;;;;;;5135085;27;19942;-43
2023/07/31 10:29:33;;;;;;;;;;;18.30;99.90;;;;;;5131412;27;19988;-42
2023/07/31 10:31:59;;;;;;;;;;;18.20;99.90;;;;;;5127986;27;19911;-42
2023/07/31 10:34:25;;;;;;;;;;;18.20;99.90;;;;;;5128153;27;19912;-42
2023/07/31 10:37:10;;;;;;;;;;;18.20;99.90;;;;;;5118044;27;19957;-44
2023/07/31 10:39:37;;;;;;;;;;;18.20;99.90;;;;;;5113688;28;19947;-42
2023/07/31 10:42:10;;;;;;;;;;;18.20;99.90;;;;;;5124045;27;20006;-41
2023/07/31 10:44:35;;;;;;;;;;;18.30;99.90;;;;;;5128926;27;19919;-41
2023/07/31 10:47:01;;;;;;;;;;;18.40;99.90;;;;;;5125274;27;19912;-42
2023/07/31 10:49:29;;;;;;;;;;;18.50;99.90;;;;;;5121484;27;19907;-42
2023/07/31 10:51:55;;;;;;;;;;;18.50;99.90;;;;;;5129320;27;20006;-42
2023/07/31 10:54:21;;;;;;;;;;;18.50;99.90;;;;;;5113657;28;19907;-41
2023/07/31 10:56:47;;;;;;;;;;;18.50;99.90;;;;;;5124764;27;19964;-42
2023/07/31 10:59:13;;;;;;;;;;;18.60;99.90;;;;;;5121002;27;19922;-42
2023/07/31 11:01:52;;;;;;;;;;;18.60;99.90;;;;;;5124043;27;19922;-41
2023/07/31 11:04:24;;;;;;;;;;;18.60;99.90;;;;;;5123652;27;19920;-41
2023/07/31 11:07:01;;;;;;;;;;;18.60;99.90;;;;;;5112566;28;19998;-41
2023/07/31 11:09:31;;;;;;;;;;;18.60;99.90;;;;;;5120258;27;20294;-42
2023/07/31 11:11:57;;;;;;;;;;;18.70;99.90;;;;;;5122383;27;20366;-43
2023/07/31 11:14:23;;;;;;;;;;;18.70;99.90;;;;;;5122101;27;19918;-42
2023/07/31 11:16:54;;;;;;;;;;;18.70;99.90;;;;;;5129058;27;19912;-41
2023/07/31 11:19:23;;;;;;;;;;;18.70;99.90;;;;;;5133228;27;19955;-42
2023/07/31 11:21:49;;;;;;;;;;;18.70;99.90;;;;;;5132581;27;19911;-43
2023/07/31 11:24:14;;;;;;;;;;;18.70;99.90;;;;;;5132836;27;20018;-42
2023/07/31 11:26:47;;;;;;;;;;;18.60;99.90;;;;;;5133522;27;19935;-43
2023/07/31 11:29:13;;;;;;;;;;;18.60;99.90;;;;;;5119124;27;20558;-41
2023/07/31 11:31:42;;;;;;;;;;;18.60;99.90;;;;;;5129320;27;20087;-42
2023/07/31 11:34:08;;;;;;;;;;;18.60;99.90;;;;;;5119574;27;19912;-41
2023/07/31 11:36:33;;;;;;;;;;;18.60;99.90;;;;;;5119668;27;19915;-41
2023/07/31 11:39:06;;;;;;;;;;;18.60;99.90;;;;;;5113296;28;19918;-42
2023/07/31 11:41:32;;;;;;;;;;;18.70;99.90;;;;;;5119418;27;19965;-41
2023/07/31 11:44:01;;;;;;;;;;;18.70;99.90;;;;;;5111829;27;20435;-44
2023/07/31 11:46:26;;;;;;;;;;;18.70;99.90;;;;;;5121348;27;19950;-43
2023/07/31 11:48:52;;;;;;;;;;;18.70;99.90;;;;;;5133874;27;20015;-41
2023/07/31 11:51:19;;;;;;;;;;;18.70;99.90;;;;;;5132865;27;19914;-41
2023/07/31 11:53:47;;;;;;;;;;;18.70;99.90;;;;;;5133917;27;19969;-42
2023/07/31 11:56:19;;;;;;;;;;;18.70;99.90;;;;;;5117026;27;20359;-41
2023/07/31 11:58:46;;;;;;;;;;;18.70;99.90;;;;;;5122373;27;19911;-41
2023/07/31 12:01:13;;;;;;;;;;;18.80;99.90;;;;;;5121381;27;19911;-42
2023/07/31 12:03:39;;;;;;;;;;;18.90;99.90;;;;;;5127899;27;20366;-40
2023/07/31 12:06:04;;;;;;;;;;;19.00;99.90;;;;;;5112974;28;19919;-40
2023/07/31 12:08:30;;;;;;;;;;;19.20;99.90;;;;;;5113257;28;19998;-40
2023/07/31 12:11:01;;;;;;;;;;;19.30;99.90;;;;;;5112598;28;19908;-40
2023/07/31 12:13:27;;;;;;;;;;;19.50;99.90;;;;;;5113514;28;19908;-40
2023/07/31 12:15:57;;;;;;;;;;;19.60;99.90;;;;;;5116817;28;20440;-40
2023/07/31 12:18:23;;;;;;;;;;;19.60;99.90;;;;;;5127659;28;19912;-41
2023/07/31 12:20:53;;;;;;;;;;;19.60;99.90;;;;;;5133851;28;19907;-40
2023/07/31 12:23:27;;;;;;;;;;;19.60;99.90;;;;;;5133766;28;19911;-40
2023/07/31 12:26:10;;;;;;;;;;;19.60;99.90;;;;;;5132936;28;19908;-41
2023/07/31 12:28:40;;;;;;;;;;;19.50;99.90;;;;;;5130656;28;19907;-42
2023/07/31 12:31:07;;;;;;;;;;;19.50;99.90;;;;;;5132025;28;19961;-41
2023/07/31 12:33:36;;;;;;;;;;;19.50;99.90;;;;;;5133545;28;19908;-41
2023/07/31 12:36:02;;;;;;;;;;;19.50;99.90;;;;;;5133384;28;19911;-41
2023/07/31 12:38:28;;;;;;;;;;;19.40;99.90;;;;;;5114141;28;20026;-41
2023/07/31 12:40:53;;;;;;;;;;;19.30;99.90;;;;;;5120933;28;20011;-40
2023/07/31 12:43:19;;;;;;;;;;;19.30;99.90;;;;;;5133158;27;20386;-40
2023/07/31 12:45:45;;;;;;;;;;;19.30;99.90;;;;;;5129405;28;19915;-40
2023/07/31 12:48:10;;;;;;;;;;;19.20;99.90;;;;;;5123015;28;20005;-41
2023/07/31 12:50:36;;;;;;;;;;;19.30;99.90;;;;;;5133369;28;20282;-41
2023/07/31 12:53:03;;;;;;;;;;;19.20;99.90;;;;;;5127145;28;19957;-40
2023/07/31 12:55:28;;;;;;;;;;;19.30;99.90;;;;;;5121303;28;19970;-40
2023/07/31 12:57:54;;;;;;;;;;;19.20;99.90;;;;;;5134059;27;20342;-40
2023/07/31 13:00:19;;;;;;;;;;;19.20;99.90;;;;;;5133579;27;19916;-41
2023/07/31 13:02:45;;;;;;;;;;;19.10;99.90;;;;;;5133147;27;19912;-41
2023/07/31 13:05:10;;;;;;;;;;;19.00;99.90;;;;;;5127829;27;20163;-41
2023/07/31 13:07:36;;;;;;;;;;;19.00;99.90;;;;;;5125619;27;19918;-42
2023/07/31 13:10:01;;;;;;;;;;;19.00;99.90;;;;;;5122496;27;20019;-41
2023/07/31 13:12:27;;;;;;;;;;;19.00;99.90;;;;;;5125402;27;19919;-41
2023/07/31 13:14:52;;;;;;;;;;;19.00;99.90;;;;;;5115576;28;20006;-41
2023/07/31 13:17:18;;;;;;;;;;;19.10;99.90;;;;;;5116650;27;19919;-40
2023/07/31 13:19:44;;;;;;;;;;;19.10;99.90;;;;;;5127002;27;19907;-41
2023/07/31 13:22:09;;;;;;;;;;;19.20;99.90;;;;;;5127110;27;20293;-39
2023/07/31 13:24:35;;;;;;;;;;;19.20;99.90;;;;;;5116083;28;19916;-40
2023/07/31 13:27:00;;;;;;;;;;;19.20;99.90;;;;;;5116658;27;19918;-40
2023/07/31 13:29:26;;;;;;;;;;;19.30;99.90;;;;;;5119633;27;19912;-41
2023/07/31 13:31:52;;;;;;;;;;;19.30;99.90;;;;;;5136645;27;19908;-40
2023/07/31 13:34:17;;;;;;;;;;;19.30;99.90;;;;;;5122960;27;20518;-40
2023/07/31 13:36:43;;;;;;;;;;;19.30;99.90;;;;;;5116843;27;20495;-40
2023/07/31 13:39:08;;;;;;;;;;;19.30;99.90;;;;;;5135490;27;20282;-39
2023/07/31 13:41:34;;;;;;;;;;;19.40;99.90;;;;;;5135594;27;19907;-40
2023/07/31 13:43:59;;;;;;;;;;;19.50;99.90;;;;;;5126182;27;19928;-41
2023/07/31 13:46:25;;;;;;;;;;;19.50;99.90;;;;;;5115854;28;20362;-40
2023/07/31 13:48:51;;;;;;;;;;;19.60;99.90;;;;;;5120615;27;20029;-40
2023/07/31 13:51:16;;;;;;;;;;;19.60;99.90;;;;;;5136150;27;20377;-40
2023/07/31 13:53:42;;;;;;;;;;;19.70;99.90;;;;;;5120891;27;19911;-40
2023/07/31 13:56:07;;;;;;;;;;;19.80;99.90;;;;;;5123827;27;19919;-39
2023/07/31 13:58:33;;;;;;;;;;;19.90;99.90;;;;;;5125139;27;19911;-41
2023/07/31 14:00:58;;;;;;;;;;;19.90;99.90;;;;;;5134883;27;19943;-39
2023/07/31 14:03:24;;;;;;;;;;;19.90;99.90;;;;;;5134263;27;20009;-40
2023/07/31 14:05:50;;;;;;;;;;;20.00;99.90;;;;;;5135073;27;20288;-39
2023/07/31 14:08:15;;;;;;;;;;;20.10;99.90;;;;;;5134657;27;19911;-39
2023/07/31 14:10:41;;;;;;;;;;;20.10;99.90;;;;;;5132837;27;20011;-39